Time;durP1;ratioP1;P1;durP2;ratioP2;P2;SDS_P1;SDS_P2;PMS_P1;PMS_P2;Temp;Humidity;BMP_temperature;BMP_pressure;BME280_temperature;BME280_humidity;BME280_pressure;Samples;Min_cycle;Max_cycle;Signal;HPM_P1;HPM_P2
2021/05/19 00:01:27;;;;;;;1.53;1.07;;;;;;;;;;5101240;28;20232;-74
2021/05/19 00:03:55;;;;;;;1.20;0.80;;;;;;;;;;5100250;28;20262;-73
2021/05/19 00:06:23;;;;;;;1.73;1.03;;;;;;;;;;5099315;28;20229;-72
2021/05/19 00:08:51;;;;;;;1.50;1.00;;;;;;;;;;5099418;28;20241;-73
2021/05/19 00:11:18;;;;;;;0.80;0.70;;;;;;;;;;5099465;28;20288;-73
2021/05/19 00:13:46;;;;;;;1.80;1.10;;;;;;;;;;5099806;28;20212;-74
2021/05/19 00:16:13;;;;;;;2.93;0.90;;;;;;;;;;5099714;28;20329;-73
2021/05/19 00:18:41;;;;;;;0.93;0.83;;;;;;;;;;5099322;28;20647;-73
2021/05/19 00:21:09;;;;;;;2.33;1.20;;;;;;;;;;5099270;28;20233;-73
2021/05/19 00:23:38;;;;;;;1.10;1.00;;;;;;;;;;5099099;28;20221;-73
2021/05/19 00:26:05;;;;;;;3.83;2.73;;;;;;;;;;5099214;28;20260;-73
2021/05/19 00:28:33;;;;;;;4.07;1.93;;;;;;;;;;5110027;28;20229;-73
2021/05/19 00:31:03;;;;;;;3.90;1.40;;;;;;;;;;5119796;28;20273;-74
2021/05/19 00:33:31;;;;;;;2.30;1.33;;;;;;;;;;5119815;28;20666;-73
2021/05/19 00:35:59;;;;;;;4.30;1.47;;;;;;;;;;5114213;27;20308;-73
2021/05/19 00:38:26;;;;;;;1.20;1.10;;;;;;;;;;5098928;28;20329;-73
2021/05/19 00:40:54;;;;;;;3.87;1.60;;;;;;;;;;5099021;28;20233;-73
2021/05/19 00:43:23;;;;;;;2.60;1.63;;;;;;;;;;5098803;28;20209;-73
2021/05/19 00:45:50;;;;;;;2.47;1.93;;;;;;;;;;5098502;28;20300;-74
2021/05/19 00:48:18;;;;;;;3.07;1.80;;;;;;;;;;5099429;28;20749;-73
2021/05/19 00:50:45;;;;;;;2.63;1.50;;;;;;;;;;5098657;28;20244;-73
2021/05/19 00:53:13;;;;;;;4.13;1.50;;;;;;;;;;5098512;28;20290;-73
2021/05/19 00:55:40;;;;;;;3.27;2.07;;;;;;;;;;5098757;28;20257;-73
2021/05/19 00:58:09;;;;;;;2.07;1.80;;;;;;;;;;5098523;28;20293;-74
2021/05/19 01:00:37;;;;;;;3.07;1.63;;;;;;;;;;5105556;28;20296;-73
2021/05/19 01:03:04;;;;;;;2.10;1.90;;;;;;;;;;5119013;28;20208;-74
2021/05/19 01:05:36;;;;;;;2.73;1.93;;;;;;;;;;5119292;28;20262;-73
2021/05/19 01:10:49;;;;;;;4.13;1.73;;;;;;;;;;5118742;27;20288;-73
2021/05/19 01:13:18;;;;;;;2.20;1.70;;;;;;;;;;5118729;28;20276;-73
2021/05/19 01:15:46;;;;;;;3.30;1.87;;;;;;;;;;5118531;28;20258;-73
2021/05/19 01:18:14;;;;;;;2.37;1.97;;;;;;;;;;5118448;28;20296;-73
2021/05/19 01:20:42;;;;;;;3.40;2.13;;;;;;;;;;5118483;28;20287;-73
2021/05/19 01:23:11;;;;;;;3.93;1.93;;;;;;;;;;5106679;28;20219;-73
2021/05/19 01:25:38;;;;;;;2.53;1.67;;;;;;;;;;5104765;28;20260;-73
2021/05/19 01:28:07;;;;;;;1.80;1.70;;;;;;;;;;5100532;28;20206;-73
2021/05/19 01:30:35;;;;;;;6.17;2.47;;;;;;;;;;5106209;28;20257;-73
2021/05/19 01:33:03;;;;;;;1.70;1.60;;;;;;;;;;5099092;28;20272;-73
2021/05/19 01:35:32;;;;;;;2.00;1.63;;;;;;;;;;5110424;28;20221;-73
2021/05/19 01:38:00;;;;;;;4.77;2.20;;;;;;;;;;5100359;28;20233;-73
2021/05/19 01:40:28;;;;;;;2.60;1.67;;;;;;;;;;5108496;28;20281;-73
2021/05/19 01:42:56;;;;;;;3.10;2.00;;;;;;;;;;5097816;28;20288;-73
2021/05/19 01:45:24;;;;;;;2.47;1.60;;;;;;;;;;5098980;28;20708;-73
2021/05/19 01:47:52;;;;;;;2.33;1.77;;;;;;;;;;5098211;28;20236;-73
2021/05/19 01:50:21;;;;;;;3.40;1.73;;;;;;;;;;5097937;28;20641;-73
2021/05/19 01:52:50;;;;;;;2.00;1.40;;;;;;;;;;5098285;28;20304;-73
2021/05/19 01:55:18;;;;;;;2.10;1.50;;;;;;;;;;5102374;28;20267;-73
2021/05/19 01:57:47;;;;;;;3.67;1.20;;;;;;;;;;5118148;27;20725;-73
2021/05/19 02:00:16;;;;;;;2.97;1.30;;;;;;;;;;5118106;28;20248;-73
2021/05/19 02:02:43;;;;;;;1.13;0.97;;;;;;;;;;5118332;28;20205;-73
2021/05/19 02:05:12;;;;;;;2.17;1.30;;;;;;;;;;5118155;28;20311;-73
2021/05/19 02:07:40;;;;;;;2.37;1.37;;;;;;;;;;5117862;28;20284;-73
2021/05/19 02:10:08;;;;;;;2.30;1.40;;;;;;;;;;5118384;28;20239;-73
2021/05/19 02:12:36;;;;;;;4.57;1.23;;;;;;;;;;5111000;28;20285;-73
2021/05/19 02:15:05;;;;;;;2.97;1.20;;;;;;;;;;5102896;28;20305;-73
2021/05/19 02:17:32;;;;;;;1.60;1.20;;;;;;;;;;5108746;28;20197;-74
2021/05/19 02:20:06;;;;;;;1.03;1.03;;;;;;;;;;5108066;28;20197;-73
2021/05/19 02:22:34;;;;;;;4.00;1.23;;;;;;;;;;5106353;28;20299;-73
2021/05/19 02:25:01;;;;;;;2.17;1.10;;;;;;;;;;5110770;28;20305;-74
2021/05/19 02:27:29;;;;;;;1.03;0.90;;;;;;;;;;5107829;28;20210;-73
2021/05/19 02:29:57;;;;;;;2.43;1.20;;;;;;;;;;5109002;28;20196;-73
2021/05/19 02:32:26;;;;;;;2.53;0.97;;;;;;;;;;5111900;28;20231;-73
2021/05/19 02:34:54;;;;;;;1.47;0.93;;;;;;;;;;5113111;28;20213;-73
2021/05/19 02:37:21;;;;;;;1.37;1.00;;;;;;;;;;5110848;28;20213;-73
2021/05/19 02:39:49;;;;;;;2.53;0.80;;;;;;;;;;5111580;28;20283;-73
2021/05/19 02:42:16;;;;;;;2.37;0.97;;;;;;;;;;5109043;28;20276;-73
2021/05/19 02:44:44;;;;;;;2.47;1.07;;;;;;;;;;5109410;28;20250;-73
2021/05/19 02:47:12;;;;;;;1.67;1.00;;;;;;;;;;5112427;28;20287;-73
2021/05/19 02:49:41;;;;;;;4.33;0.83;;;;;;;;;;5110515;28;20197;-73
2021/05/19 02:52:08;;;;;;;1.57;0.90;;;;;;;;;;5109580;28;20288;-74
2021/05/19 02:54:35;;;;;;;2.83;0.80;;;;;;;;;;5108932;28;20308;-74
2021/05/19 02:57:03;;;;;;;1.07;0.97;;;;;;;;;;5109535;28;20275;-74
2021/05/19 02:59:31;;;;;;;1.90;0.97;;;;;;;;;;5108512;28;20295;-73
2021/05/19 03:01:58;;;;;;;2.20;1.17;;;;;;;;;;5099134;28;20650;-74
2021/05/19 03:04:26;;;;;;;3.17;1.00;;;;;;;;;;5113059;28;20312;-73
2021/05/19 03:06:54;;;;;;;1.10;0.97;;;;;;;;;;5119806;28;20262;-73
2021/05/19 03:09:22;;;;;;;1.90;1.20;;;;;;;;;;5119317;28;20638;-74
2021/05/19 03:11:49;;;;;;;0.77;0.77;;;;;;;;;;5119625;28;20219;-74
2021/05/19 03:14:17;;;;;;;1.57;0.93;;;;;;;;;;5119434;28;20731;-74
2021/05/19 03:16:44;;;;;;;2.20;1.10;;;;;;;;;;5121969;28;20278;-74
2021/05/19 03:19:11;;;;;;;1.80;1.00;;;;;;;;;;5121043;28;20284;-73
2021/05/19 03:21:39;;;;;;;4.67;1.03;;;;;;;;;;5104350;28;20642;-74
2021/05/19 03:24:08;;;;;;;3.20;0.93;;;;;;;;;;5104002;28;20275;-74
2021/05/19 03:26:35;;;;;;;3.50;1.00;;;;;;;;;;5109757;28;20248;-74
2021/05/19 03:29:03;;;;;;;1.17;1.07;;;;;;;;;;5111200;28;20304;-74
2021/05/19 03:31:30;;;;;;;1.20;0.83;;;;;;;;;;5100666;28;20288;-74
2021/05/19 03:33:58;;;;;;;0.67;0.67;;;;;;;;;;5100177;28;20213;-74
2021/05/19 03:36:25;;;;;;;1.73;0.80;;;;;;;;;;5108113;28;20225;-74
2021/05/19 03:38:53;;;;;;;1.57;0.93;;;;;;;;;;5099949;28;20223;-74
2021/05/19 03:41:21;;;;;;;0.73;0.73;;;;;;;;;;5100134;28;20205;-74
2021/05/19 03:43:49;;;;;;;2.67;1.23;;;;;;;;;;5100033;28;20644;-74
2021/05/19 03:46:17;;;;;;;4.07;0.77;;;;;;;;;;5109095;28;20228;-74
2021/05/19 03:48:45;;;;;;;0.93;0.90;;;;;;;;;;5101029;28;20233;-74
2021/05/19 03:51:12;;;;;;;3.10;1.20;;;;;;;;;;5100258;28;20270;-74
2021/05/19 03:53:40;;;;;;;1.97;0.90;;;;;;;;;;5106813;28;20251;-74
2021/05/19 03:56:08;;;;;;;1.67;1.37;;;;;;;;;;5120283;28;20307;-74
2021/05/19 03:58:36;;;;;;;3.67;1.17;;;;;;;;;;5120248;28;20291;-74
2021/05/19 04:01:04;;;;;;;0.80;0.80;;;;;;;;;;5120311;27;20288;-74
2021/05/19 04:03:31;;;;;;;4.23;1.27;;;;;;;;;;5120278;28;20288;-74
2021/05/19 04:05:59;;;;;;;4.00;0.90;;;;;;;;;;5120103;28;20320;-74
2021/05/19 04:08:32;;;;;;;5.10;1.30;;;;;;;;;;5119893;28;20287;-74
2021/05/19 04:11:00;;;;;;;3.70;1.47;;;;;;;;;;5119982;28;20237;-74
2021/05/19 04:13:27;;;;;;;0.97;0.90;;;;;;;;;;5119921;28;20258;-74
2021/05/19 04:15:56;;;;;;;2.40;0.90;;;;;;;;;;5119919;28;20378;-73
2021/05/19 04:18:24;;;;;;;5.17;1.10;;;;;;;;;;5120016;28;20236;-73
2021/05/19 04:20:51;;;;;;;2.03;1.17;;;;;;;;;;5121192;28;20284;-74
2021/05/19 04:23:21;;;;;;;1.47;1.20;;;;;;;;;;5120273;28;20205;-74
2021/05/19 04:25:48;;;;;;;3.27;1.10;;;;;;;;;;5110952;28;20756;-73
2021/05/19 04:28:16;;;;;;;3.63;1.23;;;;;;;;;;5099180;28;20201;-74
2021/05/19 04:30:43;;;;;;;2.53;0.90;;;;;;;;;;5099187;28;20201;-74
2021/05/19 04:33:12;;;;;;;2.13;1.10;;;;;;;;;;5099212;28;20245;-74
2021/05/19 04:35:39;;;;;;;1.43;0.90;;;;;;;;;;5102425;28;20249;-73
2021/05/19 04:38:07;;;;;;;2.10;1.10;;;;;;;;;;5098588;28;20296;-74
2021/05/19 04:40:35;;;;;;;10.73;1.60;;;;;;;;;;5099144;28;20219;-74
2021/05/19 04:43:05;;;;;;;2.40;0.70;;;;;;;;;;5098959;28;20288;-74
2021/05/19 04:45:32;;;;;;;2.40;1.93;;;;;;;;;;5101173;28;20300;-73
2021/05/19 04:48:00;;;;;;;4.43;1.23;;;;;;;;;;5101224;28;20289;-74
2021/05/19 04:50:28;;;;;;;3.37;0.97;;;;;;;;;;5098996;28;20672;-74
2021/05/19 04:52:56;;;;;;;3.07;1.10;;;;;;;;;;5098408;28;20740;-74
2021/05/19 04:55:23;;;;;;;1.77;1.10;;;;;;;;;;5099026;28;20321;-74
2021/05/19 04:57:51;;;;;;;3.27;1.33;;;;;;;;;;5098639;28;20288;-74
2021/05/19 05:00:19;;;;;;;3.90;1.00;;;;;;;;;;5099172;28;20268;-74
2021/05/19 05:02:47;;;;;;;1.93;1.13;;;;;;;;;;5098438;28;20201;-74
2021/05/19 05:05:14;;;;;;;1.60;1.30;;;;;;;;;;5098395;28;20252;-75
2021/05/19 05:07:43;;;;;;;2.53;1.00;;;;;;;;;;5098436;28;20293;-74
2021/05/19 05:10:11;;;;;;;3.97;1.20;;;;;;;;;;5098395;28;20293;-74
2021/05/19 05:12:39;;;;;;;1.77;1.00;;;;;;;;;;5105033;28;20254;-72
2021/05/19 05:15:10;;;;;;;3.27;1.33;;;;;;;;;;5118713;28;20252;-73
2021/05/19 05:17:37;;;;;;;1.87;1.03;;;;;;;;;;5118595;28;20619;-74
2021/05/19 05:20:06;;;;;;;2.47;1.87;;;;;;;;;;5118347;28;20209;-74
2021/05/19 05:22:33;;;;;;;2.70;1.00;;;;;;;;;;5114710;28;20394;-74
2021/05/19 05:25:01;;;;;;;2.87;1.00;;;;;;;;;;5104385;28;20228;-74
2021/05/19 05:27:29;;;;;;;3.17;1.40;;;;;;;;;;5115001;28;20201;-72
2021/05/19 05:29:56;;;;;;;3.47;1.00;;;;;;;;;;5118226;28;20232;-73
2021/05/19 05:32:25;;;;;;;1.40;0.80;;;;;;;;;;5118449;28;20201;-73
2021/05/19 05:34:52;;;;;;;2.97;0.80;;;;;;;;;;5118150;27;20332;-73
2021/05/19 05:37:21;;;;;;;3.30;1.00;;;;;;;;;;5118219;27;20715;-73
2021/05/19 05:39:49;;;;;;;2.07;1.40;;;;;;;;;;5118261;28;20231;-73
2021/05/19 05:42:17;;;;;;;1.47;1.20;;;;;;;;;;5118005;27;20614;-72
2021/05/19 05:44:45;;;;;;;3.40;1.20;;;;;;;;;;5117751;28;20217;-73
2021/05/19 05:47:13;;;;;;;3.70;1.23;;;;;;;;;;5107240;28;20216;-73
2021/05/19 05:49:40;;;;;;;2.47;1.20;;;;;;;;;;5097914;28;20209;-73
2021/05/19 05:52:08;;;;;;;1.27;0.90;;;;;;;;;;5097628;28;20201;-72
2021/05/19 05:54:35;;;;;;;4.20;1.60;;;;;;;;;;5098017;28;20222;-73
2021/05/19 05:57:03;;;;;;;2.30;1.10;;;;;;;;;;5099291;28;20232;-73
2021/05/19 05:59:31;;;;;;;1.67;1.07;;;;;;;;;;5101960;28;20280;-73
2021/05/19 06:01:59;;;;;;;2.30;1.50;;;;;;;;;;5102045;28;20216;-73
2021/05/19 06:04:26;;;;;;;5.60;1.27;;;;;;;;;;5101700;28;20316;-73
2021/05/19 06:06:54;;;;;;;2.27;1.30;;;;;;;;;;5101760;28;20317;-74
2021/05/19 06:09:22;;;;;;;5.00;1.13;;;;;;;;;;5105603;28;20202;-72
2021/05/19 06:11:49;;;;;;;2.07;1.07;;;;;;;;;;5110581;28;20284;-74
2021/05/19 06:14:18;;;;;;;3.07;1.20;;;;;;;;;;5107735;28;20535;-71
2021/05/19 06:16:47;;;;;;;2.87;1.30;;;;;;;;;;5111049;28;20197;-72
2021/05/19 06:19:14;;;;;;;2.30;1.60;;;;;;;;;;5109649;28;20219;-72
2021/05/19 06:21:42;;;;;;;2.17;0.80;;;;;;;;;;5109654;28;20265;-72
2021/05/19 06:24:10;;;;;;;2.23;0.80;;;;;;;;;;5109210;28;20197;-73
2021/05/19 06:26:38;;;;;;;3.23;1.10;;;;;;;;;;5109335;28;20246;-73
2021/05/19 06:29:05;;;;;;;2.63;0.93;;;;;;;;;;5101353;28;20649;-72
2021/05/19 06:31:33;;;;;;;8.70;4.70;;;;;;;;;;5101615;28;20202;-72
2021/05/19 06:34:02;;;;;;;3.03;1.60;;;;;;;;;;5101079;28;20254;-72
2021/05/19 06:36:29;;;;;;;2.73;1.30;;;;;;;;;;5108096;28;20531;-73
2021/05/19 06:38:57;;;;;;;2.97;0.93;;;;;;;;;;5109261;28;20193;-72
2021/05/19 06:41:24;;;;;;;1.47;1.00;;;;;;;;;;5110296;28;20221;-72
2021/05/19 06:43:53;;;;;;;1.90;1.10;;;;;;;;;;5110464;28;20233;-71
2021/05/19 06:46:21;;;;;;;3.47;1.20;;;;;;;;;;5109473;28;20690;-73
2021/05/19 06:48:48;;;;;;;3.23;0.93;;;;;;;;;;5101003;28;20205;-73
2021/05/19 06:51:19;;;;;;;2.47;0.90;;;;;;;;;;5106269;28;20202;-72
2021/05/19 06:53:46;;;;;;;2.17;0.73;;;;;;;;;;5100527;28;20565;-72
2021/05/19 06:56:14;;;;;;;3.50;1.00;;;;;;;;;;5100586;28;20249;-72
2021/05/19 06:58:42;;;;;;;4.47;1.10;;;;;;;;;;5105634;27;20201;-72
2021/05/19 07:01:10;;;;;;;1.23;1.07;;;;;;;;;;5100736;28;20205;-72
2021/05/19 07:03:37;;;;;;;4.13;1.07;;;;;;;;;;5101051;28;20696;-73
2021/05/19 07:06:05;;;;;;;1.40;0.87;;;;;;;;;;5100224;28;20689;-72
2021/05/19 07:08:34;;;;;;;2.07;1.60;;;;;;;;;;5099305;28;20201;-72
2021/05/19 07:11:01;;;;;;;3.37;1.20;;;;;;;;;;5100113;28;20205;-73
2021/05/19 07:13:29;;;;;;;1.50;0.90;;;;;;;;;;5100397;28;20210;-73
2021/05/19 07:15:57;;;;;;;3.13;0.90;;;;;;;;;;5103894;28;20248;-73
2021/05/19 07:18:24;;;;;;;3.70;1.03;;;;;;;;;;5103576;28;20331;-73
2021/05/19 07:20:52;;;;;;;1.73;1.10;;;;;;;;;;5101002;28;20212;-74
2021/05/19 07:23:19;;;;;;;2.43;1.00;;;;;;;;;;5106657;28;20245;-73
2021/05/19 07:25:48;;;;;;;2.63;0.90;;;;;;;;;;5099405;28;20225;-72
2021/05/19 07:28:16;;;;;;;1.60;0.67;;;;;;;;;;5099728;28;20634;-72
2021/05/19 07:30:43;;;;;;;2.00;1.30;;;;;;;;;;5099588;28;20673;-73
2021/05/19 07:33:18;;;;;;;2.30;1.10;;;;;;;;;;5109914;28;20283;-72
2021/05/19 07:35:46;;;;;;;2.93;1.00;;;;;;;;;;5108827;28;20274;-70
2021/05/19 07:38:13;;;;;;;4.83;1.10;;;;;;;;;;5099330;28;20201;-70
2021/05/19 07:40:41;;;;;;;1.23;0.80;;;;;;;;;;5099328;28;20210;-70
2021/05/19 07:43:10;;;;;;;1.03;1.00;;;;;;;;;;5099320;28;20206;-70
2021/05/19 07:45:37;;;;;;;4.33;1.10;;;;;;;;;;5102711;28;20260;-71
2021/05/19 07:48:04;;;;;;;2.63;0.93;;;;;;;;;;5105775;28;20279;-71
2021/05/19 07:50:30;;;;;;;3.60;1.17;;;;;;;;;;5102402;28;20725;-71
2021/05/19 07:52:57;;;;;;;1.73;1.03;;;;;;;;;;5107126;28;20235;-71
2021/05/19 07:55:25;;;;;;;1.33;1.10;;;;;;;;;;5109073;28;20217;-71
2021/05/19 07:57:52;;;;;;;2.63;1.00;;;;;;;;;;5108956;28;20284;-70
2021/05/19 08:00:26;;;;;;;5.30;1.30;;;;;;;;;;5108525;28;20297;-71
2021/05/19 08:02:52;;;;;;;2.20;1.00;;;;;;;;;;5099780;28;20245;-70
2021/05/19 08:05:18;;;;;;;2.43;0.90;;;;;;;;;;5103581;28;20245;-71
2021/05/19 08:07:44;;;;;;;3.33;1.10;;;;;;;;;;5100180;28;20286;-71
2021/05/19 08:10:11;;;;;;;7.03;1.30;;;;;;;;;;5098906;28;20205;-71
2021/05/19 08:12:38;;;;;;;1.33;1.20;;;;;;;;;;5098957;28;20620;-71
2021/05/19 08:15:05;;;;;;;2.57;1.10;;;;;;;;;;5098525;28;20225;-71
2021/05/19 08:17:32;;;;;;;3.87;1.03;;;;;;;;;;5098906;28;20236;-70
2021/05/19 08:20:00;;;;;;;3.13;1.30;;;;;;;;;;5097955;28;20217;-72
2021/05/19 08:22:27;;;;;;;3.83;1.10;;;;;;;;;;5098482;28;20215;-71
2021/05/19 08:24:55;;;;;;;4.87;1.10;;;;;;;;;;5098418;28;20275;-71
2021/05/19 08:27:22;;;;;;;3.13;1.00;;;;;;;;;;5098280;28;20394;-71
2021/05/19 08:29:51;;;;;;;2.40;1.20;;;;;;;;;;5098790;28;20209;-71
2021/05/19 08:32:24;;;;;;;5.60;1.40;;;;;;;;;;5098680;28;20206;-70
2021/05/19 08:34:52;;;;;;;1.00;0.87;;;;;;;;;;5104802;28;20224;-71
2021/05/19 08:37:19;;;;;;;5.87;0.87;;;;;;;;;;5102608;28;20627;-71
2021/05/19 08:39:48;;;;;;;3.40;1.03;;;;;;;;;;5098739;28;20286;-70
2021/05/19 08:42:15;;;;;;;1.87;1.30;;;;;;;;;;5101005;28;20236;-70
2021/05/19 08:44:43;;;;;;;2.03;0.93;;;;;;;;;;5107959;28;20218;-70
2021/05/19 08:47:11;;;;;;;4.60;1.20;;;;;;;;;;5111831;28;20312;-71
2021/05/19 08:49:44;;;;;;;3.43;1.60;;;;;;;;;;5098426;28;20288;-71
2021/05/19 08:52:12;;;;;;;4.20;1.40;;;;;;;;;;5097968;28;20236;-71
2021/05/19 08:54:40;;;;;;;1.33;1.17;;;;;;;;;;5111312;28;20309;-71
2021/05/19 08:57:07;;;;;;;4.10;1.13;;;;;;;;;;5118384;28;20207;-71
2021/05/19 08:59:37;;;;;;;5.40;1.90;;;;;;;;;;5118340;28;20666;-71
2021/05/19 09:02:09;;;;;;;2.50;1.03;;;;;;;;;;5118550;28;20236;-71
2021/05/19 09:04:37;;;;;;;2.77;1.20;;;;;;;;;;5118301;28;20235;-71
2021/05/19 09:07:05;;;;;;;4.30;1.40;;;;;;;;;;5117989;28;20233;-71
2021/05/19 09:09:35;;;;;;;5.33;1.40;;;;;;;;;;5118252;28;20209;-71
2021/05/19 09:12:04;;;;;;;1.97;0.83;;;;;;;;;;5118401;28;20209;-72
2021/05/19 09:14:32;;;;;;;5.80;1.23;;;;;;;;;;5118103;28;20224;-71
2021/05/19 09:17:16;;;;;;;2.57;1.07;;;;;;;;;;5118234;28;20283;-70
2021/05/19 09:19:44;;;;;;;2.90;0.97;;;;;;;;;;5118203;28;20284;-71
2021/05/19 09:22:23;;;;;;;6.10;1.40;;;;;;;;;;5118123;28;20244;-72
2021/05/19 09:24:51;;;;;;;1.53;1.23;;;;;;;;;;5117769;28;20727;-71
2021/05/19 09:27:19;;;;;;;4.70;1.97;;;;;;;;;;5097396;28;20229;-72
2021/05/19 09:29:48;;;;;;;10.07;1.80;;;;;;;;;;5101669;28;20560;-72
2021/05/19 09:32:17;;;;;;;2.33;1.00;;;;;;;;;;5104369;28;20281;-72
2021/05/19 09:34:46;;;;;;;4.63;1.23;;;;;;;;;;5108430;28;20308;-74
2021/05/19 09:37:18;;;;;;;3.93;0.80;;;;;;;;;;5106609;28;20197;-73
2021/05/19 09:39:50;;;;;;;3.70;1.10;;;;;;;;;;5106355;28;20201;-73
2021/05/19 09:42:19;;;;;;;2.03;1.10;;;;;;;;;;5107380;28;20297;-74
2021/05/19 09:44:48;;;;;;;1.00;0.83;;;;;;;;;;5105727;28;20304;-74
2021/05/19 09:47:30;;;;;;;0.73;0.70;;;;;;;;;;5107624;28;20304;-74
2021/05/19 09:49:58;;;;;;;1.23;1.10;;;;;;;;;;5096324;28;20227;-74
2021/05/19 09:52:25;;;;;;;1.40;0.93;;;;;;;;;;5096969;28;20198;-73
2021/05/19 09:54:53;;;;;;;1.17;0.77;;;;;;;;;;5097013;28;20220;-72
2021/05/19 09:57:24;;;;;;;2.00;0.67;;;;;;;;;;5096897;28;20213;-74
2021/05/19 09:59:53;;;;;;;2.83;0.90;;;;;;;;;;5097201;28;20231;-76
2021/05/19 10:02:24;;;;;;;1.27;0.67;;;;;;;;;;5098801;28;20193;-75
2021/05/19 10:04:57;;;;;;;1.87;0.80;;;;;;;;;;5116576;28;20263;-74
2021/05/19 10:07:26;;;;;;;0.87;0.70;;;;;;;;;;5101425;28;20641;-75
2021/05/19 10:09:54;;;;;;;1.83;1.10;;;;;;;;;;5097951;28;20236;-76
2021/05/19 10:12:23;;;;;;;2.03;1.13;;;;;;;;;;5097319;28;20267;-78
2021/05/19 10:14:50;;;;;;;0.70;0.70;;;;;;;;;;5097100;28;20647;-76
2021/05/19 10:17:19;;;;;;;1.27;1.13;;;;;;;;;;5097951;28;20201;-77
2021/05/19 10:19:52;;;;;;;1.53;0.70;;;;;;;;;;5109646;28;20649;-76
2021/05/19 10:22:21;;;;;;;1.10;1.00;;;;;;;;;;5097009;28;20205;-75
2021/05/19 10:24:49;;;;;;;1.07;0.60;;;;;;;;;;5096981;28;20249;-76
2021/05/19 10:27:18;;;;;;;0.63;0.63;;;;;;;;;;5096560;28;20701;-76
2021/05/19 10:29:51;;;;;;;3.90;0.67;;;;;;;;;;5096920;28;20206;-76
2021/05/19 10:32:28;;;;;;;2.10;0.80;;;;;;;;;;5097189;28;20231;-77
2021/05/19 10:34:56;;;;;;;1.70;0.70;;;;;;;;;;5097636;28;20312;-80
2021/05/19 10:37:35;;;;;;;3.13;1.37;;;;;;;;;;5103832;28;20277;-79
2021/05/19 10:40:21;;;;;;;1.57;1.00;;;;;;;;;;5104117;28;20256;-82
2021/05/19 10:42:52;;;;;;;4.20;0.93;;;;;;;;;;5108144;28;20197;-80
2021/05/19 10:45:22;;;;;;;2.30;0.90;;;;;;;;;;5109241;28;20229;-81
2021/05/19 10:47:49;;;;;;;2.50;0.73;;;;;;;;;;5101757;28;20229;-79
2021/05/19 10:50:22;;;;;;;1.67;0.80;;;;;;;;;;5108037;28;20231;-80
2021/05/19 10:58:39;;;;;;;1.40;1.00;;;;;;;;;;5109992;28;20258;-78
2021/05/19 11:01:09;;;;;;;0.90;0.87;;;;;;;;;;5103280;28;20206;-77
2021/05/19 11:03:37;;;;;;;2.97;1.10;;;;;;;;;;5108180;28;20197;-77
2021/05/19 11:06:07;;;;;;;1.67;0.93;;;;;;;;;;5108545;28;20280;-80
2021/05/19 11:08:35;;;;;;;1.80;0.90;;;;;;;;;;5108128;28;20308;-81
2021/05/19 11:11:32;;;;;;;1.83;1.17;;;;;;;;;;5103253;28;20212;-81
2021/05/19 11:14:26;;;;;;;1.03;0.80;;;;;;;;;;5078133;28;20257;-81
2021/05/19 11:17:02;;;;;;;4.60;1.57;;;;;;;;;;5101163;28;20261;-83
2021/05/19 11:19:31;;;;;;;3.27;1.00;;;;;;;;;;5100010;28;20292;-82
2021/05/19 11:22:03;;;;;;;1.87;1.00;;;;;;;;;;5100141;28;20313;-81
2021/05/19 11:24:31;;;;;;;0.80;0.80;;;;;;;;;;5100075;28;20293;-79
2021/05/19 11:26:58;;;;;;;5.00;0.90;;;;;;;;;;5100880;28;20257;-80
2021/05/19 11:29:26;;;;;;;0.80;0.70;;;;;;;;;;5100174;28;20280;-85
2021/05/19 11:31:54;;;;;;;1.97;0.90;;;;;;;;;;5100319;28;20580;-81
2021/05/19 11:34:23;;;;;;;3.97;1.50;;;;;;;;;;5102160;28;20312;-79
2021/05/19 11:36:55;;;;;;;4.20;1.00;;;;;;;;;;5114780;28;20280;-79
2021/05/19 11:39:27;;;;;;;0.67;0.67;;;;;;;;;;5108038;28;20229;-79
2021/05/19 11:42:11;;;;;;;4.37;0.80;;;;;;;;;;5108281;28;20287;-80
2021/05/19 11:44:46;;;;;;;0.97;0.90;;;;;;;;;;5099056;28;20221;-81
2021/05/19 11:47:13;;;;;;;2.73;1.17;;;;;;;;;;5104311;28;20248;-80
2021/05/19 11:49:42;;;;;;;3.50;0.80;;;;;;;;;;5100121;28;20201;-82
2021/05/19 11:52:11;;;;;;;0.93;0.73;;;;;;;;;;5098930;28;20202;-78
2021/05/19 11:54:42;;;;;;;1.30;1.20;;;;;;;;;;5102673;28;20315;-78
2021/05/19 11:57:10;;;;;;;1.20;1.00;;;;;;;;;;5114174;28;20193;-85
2021/05/19 11:59:39;;;;;;;2.77;0.77;;;;;;;;;;5101278;28;20231;-77
2021/05/19 12:02:08;;;;;;;2.97;0.80;;;;;;;;;;5116222;28;20777;-74
2021/05/19 12:04:36;;;;;;;1.17;0.83;;;;;;;;;;5099163;28;20229;-73
2021/05/19 12:07:06;;;;;;;2.47;1.27;;;;;;;;;;5098023;28;20221;-75
2021/05/19 12:09:37;;;;;;;1.93;1.07;;;;;;;;;;5115129;28;20205;-76
2021/05/19 12:12:07;;;;;;;1.47;0.80;;;;;;;;;;5115966;28;20209;-75
2021/05/19 12:14:34;;;;;;;3.73;1.30;;;;;;;;;;5117556;27;20303;-72
2021/05/19 12:17:03;;;;;;;2.30;0.60;;;;;;;;;;5106412;28;20205;-74
2021/05/19 12:19:35;;;;;;;1.17;0.83;;;;;;;;;;5103518;28;20210;-74
2021/05/19 12:22:10;;;;;;;2.07;0.93;;;;;;;;;;5101850;28;20561;-74
2021/05/19 12:24:38;;;;;;;5.13;0.93;;;;;;;;;;5117539;28;20212;-74
2021/05/19 12:27:06;;;;;;;4.60;1.20;;;;;;;;;;5101583;28;20301;-74
2021/05/19 12:29:34;;;;;;;1.70;0.80;;;;;;;;;;5098570;28;20237;-75
2021/05/19 12:32:09;;;;;;;2.13;0.90;;;;;;;;;;5101806;28;20197;-75
2021/05/19 12:34:36;;;;;;;1.83;1.10;;;;;;;;;;5104526;27;20302;-74
2021/05/19 12:37:04;;;;;;;2.63;0.90;;;;;;;;;;5098449;28;20205;-74
2021/05/19 12:39:33;;;;;;;2.93;1.10;;;;;;;;;;5105773;28;20213;-74
2021/05/19 12:42:13;;;;;;;1.17;0.90;;;;;;;;;;5106685;28;20288;-74
2021/05/19 12:44:41;;;;;;;1.00;0.90;;;;;;;;;;5098190;28;20251;-75
2021/05/19 12:47:10;;;;;;;2.60;1.10;;;;;;;;;;5101090;28;20287;-74
2021/05/19 12:49:38;;;;;;;4.27;1.00;;;;;;;;;;5098014;28;20198;-75
2021/05/19 12:52:07;;;;;;;1.37;0.90;;;;;;;;;;5097768;28;20247;-75
2021/05/19 12:54:37;;;;;;;4.37;1.03;;;;;;;;;;5098682;28;20255;-74
2021/05/19 12:57:06;;;;;;;2.97;0.90;;;;;;;;;;5099750;28;20238;-75
2021/05/19 12:59:53;;;;;;;1.83;0.97;;;;;;;;;;5110970;28;20296;-73
2021/05/19 13:02:21;;;;;;;2.03;0.73;;;;;;;;;;5112708;28;20197;-73
2021/05/19 13:04:50;;;;;;;1.80;1.00;;;;;;;;;;5116848;28;20278;-74
2021/05/19 13:07:18;;;;;;;4.23;1.17;;;;;;;;;;5117679;28;20320;-74
2021/05/19 13:09:50;;;;;;;1.73;0.80;;;;;;;;;;5118466;28;20209;-74
2021/05/19 13:12:24;;;;;;;1.90;0.90;;;;;;;;;;5111293;28;20719;-72
2021/05/19 13:14:54;;;;;;;1.83;1.13;;;;;;;;;;5108084;28;20559;-72
2021/05/19 13:17:30;;;;;;;2.00;1.00;;;;;;;;;;5104617;28;20257;-72
2021/05/19 13:19:58;;;;;;;2.43;0.90;;;;;;;;;;5097624;28;20288;-72
2021/05/19 13:22:27;;;;;;;1.60;0.67;;;;;;;;;;5097463;28;20213;-72
2021/05/19 13:24:55;;;;;;;1.80;0.67;;;;;;;;;;5097291;28;20312;-72
2021/05/19 13:27:27;;;;;;;0.63;0.60;;;;;;;;;;5097312;28;20229;-74
2021/05/19 13:29:55;;;;;;;1.20;0.57;;;;;;;;;;5097580;28;20205;-74
2021/05/19 13:32:34;;;;;;;1.73;0.63;;;;;;;;;;5104466;28;20213;-74
2021/05/19 13:37:51;;;;;;;0.40;0.40;;;;;;;;;;5097146;28;20197;-75
2021/05/19 13:40:20;;;;;;;0.57;0.30;;;;;;;;;;5097273;28;20312;-75
2021/05/19 13:42:47;;;;;;;1.87;0.63;;;;;;;;;;5115738;28;20284;-74
2021/05/19 13:45:15;;;;;;;1.00;0.60;;;;;;;;;;5117508;28;20248;-74
2021/05/19 13:47:43;;;;;;;0.90;0.53;;;;;;;;;;5104593;28;20312;-73
2021/05/19 13:50:12;;;;;;;2.07;0.70;;;;;;;;;;5103825;28;20211;-72
2021/05/19 13:52:40;;;;;;;1.57;0.90;;;;;;;;;;5115859;28;20209;-74
2021/05/19 13:55:07;;;;;;;1.20;0.57;;;;;;;;;;5105439;28;20315;-75
2021/05/19 13:57:36;;;;;;;0.30;0.30;;;;;;;;;;5104991;28;20647;-74
2021/05/19 14:00:04;;;;;;;0.57;0.40;;;;;;;;;;5102709;28;20280;-74
2021/05/19 14:02:32;;;;;;;2.83;0.70;;;;;;;;;;5107148;28;20237;-74
2021/05/19 14:04:59;;;;;;;6.27;2.00;;;;;;;;;;5105500;28;20303;-73
2021/05/19 14:07:27;;;;;;;5.37;1.10;;;;;;;;;;5104679;28;20742;-73
2021/05/19 14:09:54;;;;;;;1.70;0.37;;;;;;;;;;5099993;28;20288;-73
2021/05/19 14:12:25;;;;;;;2.73;0.70;;;;;;;;;;5096985;28;20743;-73
2021/05/19 14:14:59;;;;;;;1.67;0.33;;;;;;;;;;5103559;28;20245;-73
2021/05/19 14:17:44;;;;;;;5.27;0.67;;;;;;;;;;5103548;28;20229;-73
2021/05/19 14:28:25;;;;;;;2.77;0.90;;;;;;;;;;5111881;28;20225;-73
2021/05/19 14:30:53;;;;;;;0.90;0.60;;;;;;;;;;5120547;27;20665;-73
2021/05/19 14:33:21;;;;;;;0.70;0.50;;;;;;;;;;5121067;27;20296;-73
2021/05/19 14:36:11;;;;;;;0.70;0.70;;;;;;;;;;5111898;28;20228;-73
2021/05/19 14:44:52;;;;;;;0.70;0.50;;;;;;;;;;5100200;28;20205;-73
2021/05/19 15:01:11;;;;;;;0.97;0.57;;;;;;;;;;5120693;28;20711;-74
2021/05/19 15:03:39;;;;;;;0.57;0.40;;;;;;;;;;5120585;28;20259;-73
2021/05/19 15:06:07;;;;;;;2.20;0.60;;;;;;;;;;5120873;28;20233;-73
2021/05/19 15:08:34;;;;;;;1.37;0.60;;;;;;;;;;5120271;27;20779;-72
2021/05/19 15:11:02;;;;;;;1.77;1.10;;;;;;;;;;5120872;28;20236;-73
2021/05/19 15:13:30;;;;;;;0.73;0.57;;;;;;;;;;5120442;28;20358;-73
2021/05/19 15:15:57;;;;;;;0.80;0.40;;;;;;;;;;5120346;28;20743;-73
2021/05/19 15:18:25;;;;;;;1.93;0.50;;;;;;;;;;5120557;28;20200;-73
2021/05/19 15:20:53;;;;;;;1.17;0.40;;;;;;;;;;5120268;28;20659;-73
2021/05/19 15:23:21;;;;;;;0.40;0.40;;;;;;;;;;5119878;28;20204;-73
2021/05/19 15:25:49;;;;;;;0.37;0.37;;;;;;;;;;5111845;28;20249;-73
2021/05/19 15:28:18;;;;;;;1.67;0.73;;;;;;;;;;5099251;28;20229;-72
2021/05/19 15:30:45;;;;;;;0.40;0.40;;;;;;;;;;5099962;28;20288;-73
2021/05/19 15:33:13;;;;;;;1.70;0.60;;;;;;;;;;5099512;28;20985;-73